createdAt,value
2019-02-19T00:00:20.203Z,19.49
2019-02-19T00:02:46.198Z,19.52
2019-02-19T00:05:12.240Z,19.49
2019-02-19T00:07:38.219Z,19.49
2019-02-19T00:10:04.195Z,19.49
2019-02-19T00:12:30.264Z,19.49
2019-02-19T00:14:56.291Z,19.48
2019-02-19T00:17:22.308Z,19.47
2019-02-19T00:19:48.319Z,19.48
2019-02-19T00:22:14.321Z,19.45
2019-02-19T00:24:40.302Z,19.45
2019-02-19T00:27:06.579Z,19.45
2019-02-19T00:29:32.567Z,19.45
2019-02-19T00:31:58.540Z,19.43
2019-02-19T00:34:24.540Z,19.44
2019-02-19T00:36:50.621Z,19.43
2019-02-19T00:39:16.601Z,19.43
2019-02-19T00:41:42.607Z,19.42
2019-02-19T00:44:08.600Z,19.42
2019-02-19T00:46:34.577Z,19.44
2019-02-19T00:49:00.555Z,19.41
2019-02-19T00:51:26.569Z,19.41
2019-02-19T00:53:52.618Z,19.42
2019-02-19T00:56:18.682Z,19.41
2019-02-19T00:58:44.675Z,19.39
2019-02-19T01:01:10.669Z,19.40
2019-02-19T01:03:36.759Z,19.40
2019-02-19T01:06:02.772Z,19.40
2019-02-19T01:08:28.773Z,19.38
2019-02-19T01:10:54.763Z,19.40
2019-02-19T01:13:20.884Z,19.39
2019-02-19T01:15:46.864Z,19.37
2019-02-19T01:18:12.846Z,19.37
2019-02-19T01:20:38.845Z,19.35
2019-02-19T01:23:04.821Z,19.35
2019-02-19T01:25:30.973Z,19.36
2019-02-19T01:27:56.953Z,19.35
2019-02-19T01:30:22.957Z,19.35
2019-02-19T01:32:48.958Z,19.34
2019-02-19T01:35:14.936Z,19.33
2019-02-19T01:37:40.926Z,19.31
2019-02-19T01:40:06.917Z,19.32
2019-02-19T01:42:32.892Z,19.33
2019-02-19T01:44:58.876Z,19.32
2019-02-19T01:47:25.082Z,19.32
2019-02-19T01:49:51.219Z,19.32
2019-02-19T01:52:17.218Z,19.31
2019-02-19T01:54:43.205Z,19.31
2019-02-19T01:57:09.226Z,19.28
2019-02-19T01:59:35.198Z,19.30
2019-02-19T02:02:01.245Z,19.31
2019-02-19T02:04:27.288Z,19.27
2019-02-19T02:06:53.264Z,19.28
2019-02-19T02:09:19.247Z,19.27
2019-02-19T02:11:45.235Z,19.27
2019-02-19T02:14:11.299Z,19.29
2019-02-19T02:16:37.337Z,19.25
2019-02-19T02:19:03.321Z,19.25
2019-02-19T02:21:29.308Z,19.26
2019-02-19T02:23:55.287Z,19.26
2019-02-19T02:26:21.298Z,19.28
2019-02-19T02:28:47.278Z,19.33
2019-02-19T02:31:13.267Z,19.35
2019-02-19T02:33:39.321Z,19.37
2019-02-19T02:36:05.305Z,19.39
2019-02-19T02:38:31.492Z,19.40
2019-02-19T02:40:57.488Z,19.41
2019-02-19T02:43:23.484Z,19.43
2019-02-19T02:45:53.448Z,19.44
2019-02-19T02:48:17.194Z,19.44
2019-02-19T02:50:43.190Z,19.46
2019-02-19T02:53:09.171Z,19.46
2019-02-19T02:55:35.160Z,19.48
2019-02-19T02:58:01.244Z,19.52
2019-02-19T03:00:27.260Z,19.52
2019-02-19T03:02:53.248Z,19.53
2019-02-19T03:05:19.230Z,19.54
2019-02-19T03:07:45.219Z,19.55
2019-02-19T03:10:11.210Z,19.55
2019-02-19T03:12:37.336Z,19.57
2019-02-19T03:15:03.303Z,19.56
2019-02-19T03:17:29.280Z,19.58
2019-02-19T03:19:55.264Z,19.58
2019-02-19T03:22:21.236Z,19.58
2019-02-19T03:24:47.211Z,19.59
2019-02-19T03:27:13.198Z,19.59
2019-02-19T03:29:39.188Z,19.60
2019-02-19T03:32:05.176Z,19.60
2019-02-19T03:34:31.283Z,19.61
2019-02-19T03:36:57.268Z,19.60
2019-02-19T03:39:23.291Z,19.60
2019-02-19T03:41:49.271Z,19.62
2019-02-19T03:44:15.274Z,19.62
2019-02-19T03:46:41.440Z,19.63
2019-02-19T03:49:07.428Z,19.64
2019-02-19T03:51:33.424Z,19.64
2019-02-19T03:53:59.412Z,19.65
2019-02-19T03:56:25.415Z,19.65
2019-02-19T03:58:51.472Z,19.66
2019-02-19T04:01:17.448Z,19.67
2019-02-19T04:03:43.511Z,19.66
2019-02-19T04:06:09.496Z,19.66
2019-02-19T04:08:35.585Z,19.68
2019-02-19T04:11:01.587Z,19.67
2019-02-19T04:13:27.635Z,19.67
2019-02-19T04:15:53.631Z,19.68
2019-02-19T04:18:19.616Z,19.68
2019-02-19T04:20:45.604Z,19.69
2019-02-19T04:23:11.596Z,19.70
2019-02-19T04:25:37.585Z,19.72
2019-02-19T04:28:03.606Z,19.71
2019-02-19T04:30:29.574Z,19.70
2019-02-19T04:32:55.545Z,19.72
2019-02-19T04:35:21.558Z,19.72
2019-02-19T04:37:47.538Z,19.72
2019-02-19T04:40:13.530Z,19.72
2019-02-19T04:42:39.514Z,19.72
2019-02-19T04:45:05.616Z,19.71
2019-02-19T04:47:31.600Z,19.73
2019-02-19T04:49:57.591Z,19.72
2019-02-19T04:52:23.606Z,19.72
2019-02-19T04:54:49.607Z,19.73
2019-02-19T04:57:15.600Z,19.74
2019-02-19T04:59:41.663Z,19.74
2019-02-19T05:02:07.675Z,19.74
2019-02-19T05:04:33.720Z,19.75
2019-02-19T05:06:59.705Z,19.75
2019-02-19T05:09:25.709Z,19.74
2019-02-19T05:11:51.687Z,19.73
2019-02-19T05:14:17.688Z,19.73
2019-02-19T05:16:43.694Z,19.74
2019-02-19T05:19:09.758Z,19.74
2019-02-19T05:21:35.738Z,19.73
2019-02-19T05:24:01.774Z,19.73
2019-02-19T05:26:27.750Z,19.74
2019-02-19T05:28:53.728Z,19.74
2019-02-19T05:31:19.729Z,19.74
2019-02-19T05:33:45.744Z,19.74
2019-02-19T05:36:11.716Z,19.73
2019-02-19T05:38:37.718Z,19.74
2019-02-19T05:41:03.768Z,19.74
2019-02-19T05:43:29.731Z,19.74
2019-02-19T05:45:55.714Z,19.72
2019-02-19T05:48:21.773Z,19.73
2019-02-19T05:50:47.748Z,19.73
2019-02-19T05:53:13.980Z,19.73
2019-02-19T05:55:39.960Z,19.71
2019-02-19T05:58:05.975Z,19.73
2019-02-19T06:00:31.967Z,19.73
2019-02-19T06:02:58.055Z,19.75
2019-02-19T06:05:24.045Z,19.75
2019-02-19T06:07:50.024Z,19.74
2019-02-19T06:10:16.006Z,19.75
2019-02-19T06:12:42.029Z,19.75
2019-02-19T06:15:08.085Z,19.75
2019-02-19T06:17:34.130Z,19.76
2019-02-19T06:20:00.362Z,19.75
2019-02-19T06:22:26.407Z,19.76
2019-02-19T06:24:52.402Z,19.76
2019-02-19T06:27:18.412Z,19.76
2019-02-19T06:29:44.418Z,19.76
2019-02-19T06:32:10.426Z,19.76
2019-02-19T06:34:36.504Z,19.76
2019-02-19T06:37:02.479Z,19.75
2019-02-19T06:39:28.576Z,19.76
2019-02-19T06:41:54.565Z,19.76
2019-02-19T06:44:20.560Z,19.75
2019-02-19T06:46:46.557Z,19.75
2019-02-19T06:49:12.548Z,19.75
2019-02-19T06:51:38.621Z,19.75
2019-02-19T06:54:04.643Z,19.74
2019-02-19T06:56:30.668Z,19.74
2019-02-19T06:58:56.759Z,19.73
2019-02-19T07:01:22.847Z,19.74
2019-02-19T07:03:48.884Z,19.73
2019-02-19T07:06:14.957Z,19.74
2019-02-19T07:08:40.944Z,19.75
2019-02-19T07:11:06.956Z,19.74
2019-02-19T07:13:32.943Z,19.74
2019-02-19T07:15:58.952Z,19.73
2019-02-19T07:18:24.937Z,19.72
2019-02-19T07:20:50.960Z,19.73
2019-02-19T07:23:16.935Z,19.72
2019-02-19T07:25:42.942Z,19.70
2019-02-19T07:28:08.986Z,19.71
2019-02-19T07:30:35.077Z,19.75
2019-02-19T07:33:01.080Z,19.76
2019-02-19T07:35:27.099Z,19.76
2019-02-19T07:37:53.080Z,19.77
2019-02-19T07:40:20.139Z,19.76
2019-02-19T07:42:46.159Z,19.76
2019-02-19T07:45:12.160Z,19.77
2019-02-19T07:47:38.132Z,19.78
2019-02-19T07:50:04.128Z,19.77
2019-02-19T07:52:30.120Z,19.78
2019-02-19T07:54:56.107Z,19.78
2019-02-19T07:57:22.121Z,19.79
2019-02-19T07:59:48.123Z,19.79
2019-02-19T08:02:14.138Z,19.78
2019-02-19T08:04:40.188Z,19.79
2019-02-19T08:07:06.240Z,19.79
2019-02-19T08:09:32.238Z,19.79
2019-02-19T08:11:58.313Z,19.79
2019-02-19T08:14:24.330Z,19.78
2019-02-19T08:16:50.365Z,19.78
2019-02-19T08:19:16.368Z,19.78
2019-02-19T08:21:42.422Z,19.78
2019-02-19T08:24:08.396Z,19.88
2019-02-19T08:26:34.415Z,19.93
2019-02-19T08:29:07.118Z,19.96
2019-02-19T08:31:28.226Z,20.00
2019-02-19T08:33:54.204Z,20.03
2019-02-19T08:36:20.187Z,20.05
2019-02-19T08:38:46.173Z,20.09
2019-02-19T08:41:12.289Z,20.13
2019-02-19T08:43:38.308Z,20.16
2019-02-19T08:46:04.306Z,20.20
2019-02-19T08:48:31.379Z,20.21
2019-02-19T08:50:57.399Z,20.26
2019-02-19T08:53:23.380Z,20.25
2019-02-19T08:55:49.384Z,20.27
2019-02-19T08:58:15.371Z,20.29
2019-02-19T09:00:41.368Z,20.29
2019-02-19T09:03:07.358Z,20.29
2019-02-19T09:05:33.354Z,20.31
2019-02-19T09:07:59.323Z,20.43
2019-02-19T09:10:25.373Z,20.49
2019-02-19T09:12:51.384Z,20.42
2019-02-19T09:15:17.362Z,20.40
2019-02-19T09:17:51.303Z,20.41
2019-02-19T09:20:11.175Z,20.45
2019-02-19T09:22:37.273Z,20.47
2019-02-19T09:25:03.297Z,20.47
2019-02-19T09:27:29.279Z,20.50
2019-02-19T09:29:55.264Z,20.52
2019-02-19T09:32:21.262Z,20.55
2019-02-19T09:34:47.249Z,20.59
2019-02-19T09:37:13.232Z,20.61
2019-02-19T09:39:39.245Z,20.62
2019-02-19T09:42:05.372Z,20.62
2019-02-19T09:44:31.374Z,20.63
2019-02-19T09:46:58.738Z,20.68
2019-02-19T09:49:24.767Z,20.69
2019-02-19T09:51:50.845Z,20.72
2019-02-19T09:54:16.933Z,20.72
2019-02-19T09:56:42.991Z,20.73
2019-02-19T09:59:08.967Z,20.74
2019-02-19T10:01:34.980Z,20.75
2019-02-19T10:04:01.022Z,20.79
2019-02-19T10:06:27.041Z,20.79
2019-02-19T10:08:53.076Z,20.80
2019-02-19T10:11:19.067Z,20.92
2019-02-19T10:13:45.049Z,21.00
2019-02-19T10:16:11.027Z,21.04
2019-02-19T10:18:37.028Z,21.04
2019-02-19T10:21:03.044Z,20.99
2019-02-19T10:23:29.068Z,20.92
2019-02-19T10:25:55.201Z,20.93
2019-02-19T10:28:21.185Z,20.89
2019-02-19T10:30:47.183Z,20.89
2019-02-19T10:33:13.195Z,20.89
2019-02-19T10:35:39.198Z,20.87
2019-02-19T10:38:05.288Z,20.89
2019-02-19T10:40:31.259Z,20.88
2019-02-19T10:42:57.257Z,20.90
2019-02-19T10:45:23.261Z,20.87
2019-02-19T10:47:49.238Z,20.90
2019-02-19T10:50:15.307Z,20.92
2019-02-19T10:52:41.350Z,20.87
2019-02-19T10:55:07.424Z,20.87
2019-02-19T10:57:33.403Z,20.94
2019-02-19T11:03:10.353Z,20.99
2019-02-19T11:05:36.344Z,21.04
2019-02-19T11:08:02.321Z,21.06
2019-02-19T11:10:28.310Z,21.03
2019-02-19T11:12:54.304Z,21.01
2019-02-19T11:15:20.329Z,21.02
2019-02-19T11:17:46.378Z,21.01
2019-02-19T11:20:12.405Z,20.99
2019-02-19T11:22:38.501Z,20.96
2019-02-19T11:25:04.580Z,20.94
2019-02-19T11:27:30.693Z,20.92
2019-02-19T11:29:56.781Z,20.92
2019-02-19T11:32:22.778Z,20.92
2019-02-19T11:34:48.832Z,20.94
2019-02-19T11:37:14.838Z,20.93
2019-02-19T11:39:40.816Z,20.94
2019-02-19T11:42:06.807Z,20.93
2019-02-19T11:44:32.776Z,20.92
2019-02-19T11:46:58.795Z,20.95
2019-02-19T11:49:24.826Z,20.92
2019-02-19T11:51:50.814Z,20.93
2019-02-19T11:54:16.833Z,20.94
2019-02-19T11:56:42.913Z,20.94
2019-02-19T11:59:08.956Z,20.92
2019-02-19T12:01:34.936Z,20.93
2019-02-19T12:04:01.009Z,20.92
2019-02-19T12:06:27.035Z,20.90
2019-02-19T12:08:53.074Z,20.91
2019-02-19T12:11:20.239Z,20.90
2019-02-19T12:13:46.266Z,20.86
2019-02-19T12:16:12.256Z,20.87
2019-02-19T12:18:46.007Z,20.88
2019-02-19T12:21:05.954Z,20.91
2019-02-19T12:23:31.979Z,20.91
2019-02-19T12:25:58.073Z,20.92
2019-02-19T12:28:24.072Z,20.94
2019-02-19T12:30:50.062Z,20.90
2019-02-19T12:33:16.086Z,20.89
2019-02-19T12:35:42.095Z,20.89
2019-02-19T12:38:08.179Z,20.92
2019-02-19T12:40:34.198Z,20.91
2019-02-19T12:43:00.229Z,20.93
2019-02-19T12:45:26.308Z,20.91
2019-02-19T12:47:52.290Z,20.95
2019-02-19T12:50:18.284Z,20.94
2019-02-19T12:52:44.288Z,20.94
2019-02-19T12:55:10.331Z,20.95
2019-02-19T12:57:36.874Z,20.98
2019-02-19T13:00:03.094Z,20.96
2019-02-19T13:02:29.100Z,21.00
2019-02-19T13:04:55.199Z,20.97
2019-02-19T13:07:21.253Z,20.93
2019-02-19T13:09:47.349Z,20.86
2019-02-19T13:12:13.352Z,20.85
2019-02-19T13:14:39.333Z,20.81
2019-02-19T13:17:05.334Z,20.76
2019-02-19T13:19:32.091Z,20.75
2019-02-19T13:21:58.267Z,20.70
2019-02-19T13:24:24.252Z,20.70
2019-02-19T13:26:50.220Z,20.69
2019-02-19T13:29:16.251Z,20.68
2019-02-19T13:31:42.235Z,20.65
2019-02-19T13:34:08.219Z,20.62
2019-02-19T13:36:34.196Z,20.60
2019-02-19T13:39:00.216Z,20.55
2019-02-19T13:41:26.212Z,20.53
2019-02-19T13:43:52.201Z,20.57
2019-02-19T13:46:18.187Z,20.53
2019-02-19T13:48:44.278Z,20.55
2019-02-19T13:51:10.251Z,20.54
2019-02-19T13:53:36.324Z,20.53
2019-02-19T13:56:02.336Z,20.47
2019-02-19T13:58:28.496Z,20.45
2019-02-19T14:00:54.531Z,20.50
2019-02-19T14:03:20.596Z,20.57
2019-02-19T14:05:46.729Z,20.65
2019-02-19T14:08:14.774Z,20.68
2019-02-19T14:10:40.448Z,20.72
2019-02-19T14:13:06.583Z,20.75
2019-02-19T14:15:32.820Z,20.78
2019-02-19T14:17:58.894Z,20.80
2019-02-19T14:20:24.874Z,20.84
2019-02-19T14:22:50.943Z,20.85
2019-02-19T14:25:16.919Z,20.87
2019-02-19T14:27:42.969Z,20.88
2019-02-19T14:30:08.967Z,20.90
2019-02-19T14:32:35.032Z,20.91
2019-02-19T14:35:01.039Z,20.91
2019-02-19T14:37:27.035Z,20.95
2019-02-19T14:39:53.034Z,20.95
2019-02-19T14:42:19.038Z,20.94
2019-02-19T14:44:45.035Z,20.94
2019-02-19T14:47:11.057Z,20.97
2019-02-19T14:49:37.565Z,21.00
2019-02-19T14:52:03.869Z,20.97
2019-02-19T14:54:29.897Z,21.00
2019-02-19T14:56:55.884Z,20.97
2019-02-19T14:59:21.961Z,21.01
2019-02-19T15:01:47.945Z,21.01
2019-02-19T15:04:13.966Z,20.98
2019-02-19T15:06:40.041Z,21.03
2019-02-19T15:09:06.053Z,21.03
2019-02-19T15:11:32.063Z,21.10
2019-02-19T15:13:58.123Z,21.08
2019-02-19T15:16:24.166Z,21.05
2019-02-19T15:18:50.180Z,21.06
2019-02-19T15:21:16.229Z,21.05
2019-02-19T15:23:42.244Z,21.05
2019-02-19T15:26:08.289Z,21.06
2019-02-19T15:28:34.290Z,21.07
2019-02-19T15:31:00.329Z,21.06
2019-02-19T15:33:26.316Z,21.06
2019-02-19T15:35:52.288Z,21.05
2019-02-19T15:38:20.208Z,21.05
2019-02-19T15:40:49.271Z,21.12
2019-02-19T15:43:16.620Z,21.10
2019-02-19T15:45:42.781Z,21.05
2019-02-19T15:48:08.777Z,21.00
2019-02-19T15:50:34.770Z,20.95
2019-02-19T15:53:00.814Z,20.92
2019-02-19T15:55:26.923Z,20.87
2019-02-19T15:57:52.985Z,20.80
2019-02-19T16:00:18.996Z,20.78
2019-02-19T16:02:44.974Z,20.75
2019-02-19T16:05:10.995Z,20.73
2019-02-19T16:07:36.996Z,20.71
2019-02-19T16:10:03.068Z,20.69
2019-02-19T16:12:29.118Z,20.69
2019-02-19T16:14:55.271Z,20.65
2019-02-19T16:17:21.383Z,20.65
2019-02-19T16:19:56.613Z,20.65
2019-02-19T16:22:15.182Z,20.62
2019-02-19T16:24:41.211Z,20.58
2019-02-19T16:27:07.205Z,20.56
2019-02-19T16:29:33.205Z,20.52
2019-02-19T16:31:59.187Z,20.51
2019-02-19T16:34:25.311Z,20.50
2019-02-19T16:36:51.335Z,20.50
2019-02-19T16:39:17.335Z,20.50
2019-02-19T16:41:43.378Z,20.49
2019-02-19T16:44:09.394Z,20.43
2019-02-19T16:46:35.402Z,20.43
2019-02-19T16:49:01.446Z,20.44
2019-02-19T16:51:27.477Z,20.44
2019-02-19T16:53:53.467Z,20.42
2019-02-19T16:56:19.475Z,20.42
2019-02-19T16:58:45.461Z,20.39
2019-02-19T17:01:11.484Z,20.42
2019-02-19T17:03:37.573Z,20.40
2019-02-19T17:06:03.618Z,20.39
2019-02-19T17:08:29.601Z,20.40
2019-02-19T17:10:55.597Z,20.37
2019-02-19T17:13:21.591Z,20.39
2019-02-19T17:15:47.580Z,20.37
2019-02-19T17:18:13.580Z,20.34
2019-02-19T17:20:39.553Z,20.33
2019-02-19T17:23:05.659Z,20.33
2019-02-19T17:25:31.683Z,20.32
2019-02-19T17:27:59.161Z,20.31
2019-02-19T17:30:25.238Z,20.40
2019-02-19T17:32:51.317Z,20.51
2019-02-19T17:35:17.441Z,20.49
2019-02-19T17:37:43.538Z,20.50
2019-02-19T17:40:09.554Z,20.52
2019-02-19T17:42:35.581Z,20.54
2019-02-19T17:45:01.609Z,20.58
2019-02-19T17:47:27.623Z,20.54
2019-02-19T17:49:53.634Z,20.45
2019-02-19T17:52:19.725Z,20.42
2019-02-19T17:54:45.752Z,20.38
2019-02-19T17:57:11.894Z,20.39
2019-02-19T17:59:37.950Z,20.37
2019-02-19T18:02:04.010Z,20.38
2019-02-19T18:04:29.997Z,20.39
2019-02-19T18:06:56.117Z,20.41
2019-02-19T18:09:22.195Z,20.37
2019-02-19T18:11:48.309Z,20.46
2019-02-19T18:14:14.399Z,20.47
2019-02-19T18:16:40.396Z,20.45
2019-02-19T18:19:06.461Z,20.43
2019-02-19T18:21:32.434Z,20.41
2019-02-19T18:23:58.493Z,20.42
2019-02-19T18:26:24.523Z,20.41
2019-02-19T18:28:50.531Z,20.41
2019-02-19T18:31:16.558Z,20.40
2019-02-19T18:33:42.568Z,20.40
2019-02-19T18:36:08.642Z,20.39
2019-02-19T18:38:34.726Z,20.38
2019-02-19T18:41:00.801Z,20.37
2019-02-19T18:43:26.813Z,20.35
2019-02-19T18:45:52.922Z,20.34
2019-02-19T18:48:18.921Z,20.34
2019-02-19T18:50:44.983Z,20.33
2019-02-19T18:53:11.011Z,20.32
2019-02-19T18:55:37.001Z,20.31
2019-02-19T18:58:02.971Z,20.30
2019-02-19T19:00:28.992Z,20.29
2019-02-19T19:02:54.991Z,20.29
2019-02-19T19:05:21.022Z,20.28
2019-02-19T19:07:47.052Z,20.27
2019-02-19T19:10:13.076Z,20.27
2019-02-19T19:12:39.081Z,20.24
2019-02-19T19:15:05.144Z,20.23
2019-02-19T19:17:31.214Z,20.21
2019-02-19T19:19:57.350Z,20.20
2019-02-19T19:22:23.433Z,20.20
2019-02-19T19:24:49.497Z,20.18
2019-02-19T19:27:15.484Z,20.19
2019-02-19T19:29:41.471Z,20.18
2019-02-19T19:32:07.480Z,20.17
2019-02-19T19:34:33.575Z,20.18
2019-02-19T19:36:59.634Z,20.16
2019-02-19T19:39:25.656Z,20.15
2019-02-19T19:41:51.659Z,20.13
2019-02-19T19:44:17.688Z,20.13
2019-02-19T19:46:43.871Z,20.13
2019-02-19T19:49:09.948Z,20.12
2019-02-19T19:51:35.962Z,20.12
2019-02-19T19:54:01.942Z,20.12
2019-02-19T19:56:27.935Z,20.12
2019-02-19T19:58:53.940Z,20.11
2019-02-19T20:01:19.967Z,20.09
2019-02-19T20:03:46.286Z,20.09
2019-02-19T20:06:12.393Z,20.09
2019-02-19T20:08:38.401Z,20.08
2019-02-19T20:11:04.466Z,20.08
2019-02-19T20:13:30.657Z,20.08
2019-02-19T20:15:56.784Z,20.06
2019-02-19T20:18:22.848Z,20.07
2019-02-19T20:20:48.917Z,20.06
2019-02-19T20:23:15.041Z,20.06
2019-02-19T20:25:41.183Z,20.05
2019-02-19T20:28:07.272Z,20.05
2019-02-19T20:30:33.492Z,20.06
2019-02-19T20:32:59.513Z,20.10
2019-02-19T20:35:25.521Z,20.10
2019-02-19T20:37:54.087Z,20.06
2019-02-19T20:40:19.358Z,20.04
2019-02-19T20:42:45.569Z,20.03
2019-02-19T20:45:11.601Z,20.02
2019-02-19T20:47:37.613Z,20.01
2019-02-19T20:50:03.677Z,20.00
2019-02-19T20:52:29.744Z,20.00
2019-02-19T20:54:55.729Z,19.99
2019-02-19T20:57:21.753Z,19.98
2019-02-19T20:59:47.969Z,19.98
2019-02-19T21:02:14.017Z,19.98
2019-02-19T21:04:40.018Z,19.97
2019-02-19T21:07:06.000Z,19.96
2019-02-19T21:09:41.194Z,19.96
2019-02-19T21:12:00.817Z,19.96
2019-02-19T21:14:26.841Z,19.94
2019-02-19T21:16:52.903Z,19.96
2019-02-19T21:19:19.103Z,19.95
2019-02-19T21:21:45.326Z,19.93
2019-02-19T21:24:11.432Z,19.94
2019-02-19T21:26:37.493Z,19.93
2019-02-19T21:29:03.706Z,19.91
2019-02-19T21:31:29.740Z,19.92
2019-02-19T21:33:55.802Z,19.91
2019-02-19T21:36:21.987Z,19.91
2019-02-19T21:38:48.009Z,19.89
2019-02-19T21:41:14.034Z,19.89
2019-02-19T21:43:40.039Z,19.88
2019-02-19T21:46:06.028Z,19.88
2019-02-19T21:48:32.105Z,19.86
2019-02-19T21:50:58.161Z,19.86
2019-02-19T21:53:24.138Z,19.86
2019-02-19T21:55:50.136Z,19.85
2019-02-19T21:58:16.174Z,19.85
2019-02-19T22:00:42.204Z,19.84
2019-02-19T22:03:08.262Z,19.84
2019-02-19T22:05:34.290Z,19.83
2019-02-19T22:08:00.335Z,19.82
2019-02-19T22:10:26.340Z,19.82
2019-02-19T22:12:52.390Z,19.82
2019-02-19T22:15:18.483Z,19.80
2019-02-19T22:17:44.534Z,19.80
2019-02-19T22:20:10.549Z,19.78
2019-02-19T22:22:36.674Z,19.79
2019-02-19T22:25:02.692Z,19.78
2019-02-19T22:27:28.695Z,19.78
2019-02-19T22:29:54.779Z,19.77
2019-02-19T22:32:20.896Z,19.77
2019-02-19T22:34:46.907Z,19.75
2019-02-19T22:37:12.909Z,19.74
2019-02-19T22:39:38.894Z,19.74
2019-02-19T22:42:04.894Z,19.74
2019-02-19T22:44:30.890Z,19.73
2019-02-19T22:46:56.912Z,19.72
2019-02-19T22:49:22.907Z,19.72
2019-02-19T22:51:48.901Z,19.71
2019-02-19T22:54:14.908Z,19.70
2019-02-19T22:56:41.101Z,19.69
2019-02-19T22:59:07.221Z,19.69
2019-02-19T23:01:34.225Z,19.69
2019-02-19T23:04:00.249Z,19.68
2019-02-19T23:06:26.237Z,19.69
2019-02-19T23:08:52.329Z,19.67
2019-02-19T23:11:18.333Z,19.67
2019-02-19T23:13:44.312Z,19.66
2019-02-19T23:16:10.323Z,19.65
2019-02-19T23:18:36.353Z,19.64
2019-02-19T23:21:02.386Z,19.65
2019-02-19T23:23:28.361Z,19.65
2019-02-19T23:25:54.359Z,19.63
2019-02-19T23:28:20.344Z,19.63
2019-02-19T23:30:46.395Z,19.61
2019-02-19T23:33:12.382Z,19.62
2019-02-19T23:35:38.396Z,19.62
2019-02-19T23:38:04.404Z,19.61
2019-02-19T23:40:30.400Z,19.60
2019-02-19T23:42:56.434Z,19.60
2019-02-19T23:45:22.451Z,19.59
2019-02-19T23:47:48.463Z,19.58
2019-02-19T23:50:14.512Z,19.56
2019-02-19T23:52:40.506Z,19.57
2019-02-19T23:55:06.507Z,19.54
2019-02-19T23:57:32.503Z,19.55
2019-02-19T23:59:58.493Z,19.56
